sensor_id;sensor_type;location;lat;lon;timestamp;P1;durP1;ratioP1;P2;durP2;ratioP2
57337;SDS011;43173;50.980;18.204;2023-02-01T00:01:12;4.70;;;1.70;;
57337;SDS011;43173;50.980;18.204;2023-02-01T00:03:38;4.60;;;1.40;;
57337;SDS011;43173;50.980;18.204;2023-02-01T00:06:04;3.70;;;1.60;;
57337;SDS011;43173;50.980;18.204;2023-02-01T00:08:30;5.50;;;1.70;;
57337;SDS011;43173;50.980;18.204;2023-02-01T00:11:02;11.40;;;2.90;;
57337;SDS011;43173;50.980;18.204;2023-02-01T00:13:31;7.20;;;1.80;;
57337;SDS011;43173;50.980;18.204;2023-02-01T00:18:43;4.70;;;1.40;;
57337;SDS011;43173;50.980;18.204;2023-02-01T00:21:10;4.20;;;1.00;;
57337;SDS011;43173;50.980;18.204;2023-02-01T00:23:36;6.00;;;0.80;;
57337;SDS011;43173;50.980;18.204;2023-02-01T00:26:05;4.50;;;1.00;;
57337;SDS011;43173;50.980;18.204;2023-02-01T00:28:32;7.80;;;1.50;;
57337;SDS011;43173;50.980;18.204;2023-02-01T00:31:01;2.30;;;1.10;;
57337;SDS011;43173;50.980;18.204;2023-02-01T00:33:29;7.40;;;1.30;;
57337;SDS011;43173;50.980;18.204;2023-02-01T00:35:56;4.70;;;1.40;;
57337;SDS011;43173;50.980;18.204;2023-02-01T00:38:25;8.00;;;1.30;;
57337;SDS011;43173;50.980;18.204;2023-02-01T00:40:52;2.80;;;0.90;;
57337;SDS011;43173;50.980;18.204;2023-02-01T00:43:18;6.10;;;1.30;;
57337;SDS011;43173;50.980;18.204;2023-02-01T00:45:45;8.60;;;1.40;;
57337;SDS011;43173;50.980;18.204;2023-02-01T00:48:11;6.50;;;1.40;;
57337;SDS011;43173;50.980;18.204;2023-02-01T00:50:41;4.10;;;1.10;;
57337;SDS011;43173;50.980;18.204;2023-02-01T00:53:08;3.10;;;0.80;;
57337;SDS011;43173;50.980;18.204;2023-02-01T00:55:35;4.10;;;1.10;;
57337;SDS011;43173;50.980;18.204;2023-02-01T00:58:01;5.40;;;1.30;;
57337;SDS011;43173;50.980;18.204;2023-02-01T01:00:26;2.50;;;1.00;;
57337;SDS011;43173;50.980;18.204;2023-02-01T01:02:52;7.60;;;1.60;;
57337;SDS011;43173;50.980;18.204;2023-02-01T01:05:18;7.10;;;1.30;;
57337;SDS011;43173;50.980;18.204;2023-02-01T01:07:44;9.40;;;1.50;;
57337;SDS011;43173;50.980;18.204;2023-02-01T01:10:10;6.70;;;1.40;;
57337;SDS011;43173;50.980;18.204;2023-02-01T01:12:36;4.70;;;1.00;;
57337;SDS011;43173;50.980;18.204;2023-02-01T01:15:01;9.20;;;1.10;;
57337;SDS011;43173;50.980;18.204;2023-02-01T01:17:28;9.50;;;1.40;;
57337;SDS011;43173;50.980;18.204;2023-02-01T01:19:53;10.10;;;1.50;;
57337;SDS011;43173;50.980;18.204;2023-02-01T01:22:19;7.30;;;1.50;;
57337;SDS011;43173;50.980;18.204;2023-02-01T01:24:45;4.30;;;1.20;;
57337;SDS011;43173;50.980;18.204;2023-02-01T01:27:10;2.80;;;1.00;;
57337;SDS011;43173;50.980;18.204;2023-02-01T01:29:36;4.90;;;1.00;;
57337;SDS011;43173;50.980;18.204;2023-02-01T01:32:01;3.30;;;1.00;;
57337;SDS011;43173;50.980;18.204;2023-02-01T01:34:27;7.80;;;1.30;;
57337;SDS011;43173;50.980;18.204;2023-02-01T01:36:53;6.00;;;1.60;;
57337;SDS011;43173;50.980;18.204;2023-02-01T01:39:18;7.40;;;1.20;;
57337;SDS011;43173;50.980;18.204;2023-02-01T01:41:44;1.90;;;0.90;;
57337;SDS011;43173;50.980;18.204;2023-02-01T01:47:15;3.60;;;1.50;;
57337;SDS011;43173;50.980;18.204;2023-02-01T01:49:41;2.70;;;1.20;;
57337;SDS011;43173;50.980;18.204;2023-02-01T01:52:08;6.90;;;1.60;;
57337;SDS011;43173;50.980;18.204;2023-02-01T01:54:43;6.00;;;1.40;;
57337;SDS011;43173;50.980;18.204;2023-02-01T01:57:14;8.10;;;1.70;;
57337;SDS011;43173;50.980;18.204;2023-02-01T01:59:45;4.00;;;1.40;;
57337;SDS011;43173;50.980;18.204;2023-02-01T02:02:12;7.00;;;1.40;;
57337;SDS011;43173;50.980;18.204;2023-02-01T02:04:38;2.20;;;1.20;;
57337;SDS011;43173;50.980;18.204;2023-02-01T02:07:05;6.90;;;1.30;;
57337;SDS011;43173;50.980;18.204;2023-02-01T02:09:34;5.30;;;1.50;;
57337;SDS011;43173;50.980;18.204;2023-02-01T02:12:00;3.50;;;1.30;;
57337;SDS011;43173;50.980;18.204;2023-02-01T02:14:26;6.60;;;1.60;;
57337;SDS011;43173;50.980;18.204;2023-02-01T02:38:34;4.80;;;1.40;;
57337;SDS011;43173;50.980;18.204;2023-02-01T02:44:13;4.30;;;1.20;;
57337;SDS011;43173;50.980;18.204;2023-02-01T02:47:21;12.00;;;2.70;;
57337;SDS011;43173;50.980;18.204;2023-02-01T02:53:03;5.70;;;1.80;;
57337;SDS011;43173;50.980;18.204;2023-02-01T02:55:50;6.00;;;1.80;;
57337;SDS011;43173;50.980;18.204;2023-02-01T02:58:16;5.50;;;1.50;;
57337;SDS011;43173;50.980;18.204;2023-02-01T03:00:59;7.10;;;2.60;;
57337;SDS011;43173;50.980;18.204;2023-02-01T03:03:42;12.40;;;3.30;;
57337;SDS011;43173;50.980;18.204;2023-02-01T03:06:25;9.40;;;2.40;;
57337;SDS011;43173;50.980;18.204;2023-02-01T03:08:51;4.80;;;1.40;;
57337;SDS011;43173;50.980;18.204;2023-02-01T03:11:19;5.40;;;1.60;;
57337;SDS011;43173;50.980;18.204;2023-02-01T03:13:53;9.10;;;1.40;;
57337;SDS011;43173;50.980;18.204;2023-02-01T03:19:00;3.60;;;1.00;;
57337;SDS011;43173;50.980;18.204;2023-02-01T03:21:44;4.40;;;1.30;;
57337;SDS011;43173;50.980;18.204;2023-02-01T03:27:06;6.90;;;1.30;;
57337;SDS011;43173;50.980;18.204;2023-02-01T03:32:15;7.40;;;1.60;;
57337;SDS011;43173;50.980;18.204;2023-02-01T03:34:41;5.50;;;1.30;;
57337;SDS011;43173;50.980;18.204;2023-02-01T03:37:09;3.40;;;1.80;;
57337;SDS011;43173;50.980;18.204;2023-02-01T03:39:39;6.00;;;1.20;;
57337;SDS011;43173;50.980;18.204;2023-02-01T03:42:13;10.50;;;1.80;;
57337;SDS011;43173;50.980;18.204;2023-02-01T03:44:45;2.30;;;1.00;;
57337;SDS011;43173;50.980;18.204;2023-02-01T03:47:19;5.40;;;2.00;;
57337;SDS011;43173;50.980;18.204;2023-02-01T03:49:49;6.30;;;2.20;;
57337;SDS011;43173;50.980;18.204;2023-02-01T03:52:20;9.10;;;2.20;;
57337;SDS011;43173;50.980;18.204;2023-02-01T03:54:49;6.50;;;1.80;;
57337;SDS011;43173;50.980;18.204;2023-02-01T03:57:16;10.70;;;3.00;;
57337;SDS011;43173;50.980;18.204;2023-02-01T03:59:46;4.60;;;1.90;;
57337;SDS011;43173;50.980;18.204;2023-02-01T04:02:11;12.40;;;2.40;;
57337;SDS011;43173;50.980;18.204;2023-02-01T04:04:37;9.40;;;2.00;;
57337;SDS011;43173;50.980;18.204;2023-02-01T04:07:03;8.20;;;2.60;;
57337;SDS011;43173;50.980;18.204;2023-02-01T04:09:29;12.00;;;3.30;;
57337;SDS011;43173;50.980;18.204;2023-02-01T04:11:55;12.40;;;2.90;;
57337;SDS011;43173;50.980;18.204;2023-02-01T04:14:21;11.70;;;3.00;;
57337;SDS011;43173;50.980;18.204;2023-02-01T04:16:47;5.80;;;2.00;;
57337;SDS011;43173;50.980;18.204;2023-02-01T04:19:13;10.20;;;2.40;;
57337;SDS011;43173;50.980;18.204;2023-02-01T04:21:39;12.70;;;3.10;;
57337;SDS011;43173;50.980;18.204;2023-02-01T04:24:17;8.60;;;1.90;;
57337;SDS011;43173;50.980;18.204;2023-02-01T04:26:43;7.00;;;2.00;;
57337;SDS011;43173;50.980;18.204;2023-02-01T04:29:09;5.80;;;1.70;;
57337;SDS011;43173;50.980;18.204;2023-02-01T04:31:35;5.40;;;1.70;;
57337;SDS011;43173;50.980;18.204;2023-02-01T04:34:01;13.80;;;2.90;;
57337;SDS011;43173;50.980;18.204;2023-02-01T04:36:27;10.70;;;2.30;;
57337;SDS011;43173;50.980;18.204;2023-02-01T04:38:52;11.20;;;1.70;;
57337;SDS011;43173;50.980;18.204;2023-02-01T04:41:19;12.60;;;2.10;;
57337;SDS011;43173;50.980;18.204;2023-02-01T04:43:45;9.80;;;2.40;;
57337;SDS011;43173;50.980;18.204;2023-02-01T04:46:12;4.60;;;1.60;;
57337;SDS011;43173;50.980;18.204;2023-02-01T04:48:37;7.40;;;1.20;;
57337;SDS011;43173;50.980;18.204;2023-02-01T04:51:03;5.80;;;1.10;;
57337;SDS011;43173;50.980;18.204;2023-02-01T04:53:29;15.60;;;2.80;;
57337;SDS011;43173;50.980;18.204;2023-02-01T04:55:55;7.80;;;2.30;;
57337;SDS011;43173;50.980;18.204;2023-02-01T04:58:21;3.90;;;1.50;;
57337;SDS011;43173;50.980;18.204;2023-02-01T05:00:47;9.40;;;2.10;;
57337;SDS011;43173;50.980;18.204;2023-02-01T05:03:13;12.70;;;2.10;;
57337;SDS011;43173;50.980;18.204;2023-02-01T05:05:39;7.50;;;1.90;;
57337;SDS011;43173;50.980;18.204;2023-02-01T05:08:05;11.30;;;2.20;;
57337;SDS011;43173;50.980;18.204;2023-02-01T05:10:30;6.60;;;2.10;;
57337;SDS011;43173;50.980;18.204;2023-02-01T05:12:56;9.30;;;2.30;;
57337;SDS011;43173;50.980;18.204;2023-02-01T05:15:37;6.50;;;1.80;;
57337;SDS011;43173;50.980;18.204;2023-02-01T05:18:03;6.30;;;1.40;;
57337;SDS011;43173;50.980;18.204;2023-02-01T05:20:28;9.90;;;2.70;;
57337;SDS011;43173;50.980;18.204;2023-02-01T05:22:54;7.60;;;2.70;;
57337;SDS011;43173;50.980;18.204;2023-02-01T05:25:20;10.30;;;2.40;;
57337;SDS011;43173;50.980;18.204;2023-02-01T05:27:45;11.00;;;1.80;;
57337;SDS011;43173;50.980;18.204;2023-02-01T05:30:11;12.90;;;2.60;;
57337;SDS011;43173;50.980;18.204;2023-02-01T05:32:37;9.60;;;2.00;;
57337;SDS011;43173;50.980;18.204;2023-02-01T05:35:03;10.40;;;1.50;;
57337;SDS011;43173;50.980;18.204;2023-02-01T05:37:29;10.60;;;2.60;;
57337;SDS011;43173;50.980;18.204;2023-02-01T05:39:55;10.50;;;1.80;;
57337;SDS011;43173;50.980;18.204;2023-02-01T05:42:21;5.90;;;1.80;;
57337;SDS011;43173;50.980;18.204;2023-02-01T05:44:47;11.80;;;4.00;;
57337;SDS011;43173;50.980;18.204;2023-02-01T05:47:12;7.70;;;2.60;;
57337;SDS011;43173;50.980;18.204;2023-02-01T05:49:38;11.00;;;2.70;;
57337;SDS011;43173;50.980;18.204;2023-02-01T05:52:04;13.40;;;3.30;;
57337;SDS011;43173;50.980;18.204;2023-02-01T05:54:30;10.60;;;1.90;;
57337;SDS011;43173;50.980;18.204;2023-02-01T05:56:55;8.10;;;2.30;;
57337;SDS011;43173;50.980;18.204;2023-02-01T05:59:21;17.20;;;2.80;;
57337;SDS011;43173;50.980;18.204;2023-02-01T06:01:47;5.60;;;1.20;;
57337;SDS011;43173;50.980;18.204;2023-02-01T06:04:13;5.40;;;1.30;;
57337;SDS011;43173;50.980;18.204;2023-02-01T06:06:39;7.70;;;2.10;;
57337;SDS011;43173;50.980;18.204;2023-02-01T06:09:05;5.10;;;1.60;;
57337;SDS011;43173;50.980;18.204;2023-02-01T06:11:30;11.30;;;1.90;;
57337;SDS011;43173;50.980;18.204;2023-02-01T06:13:56;6.70;;;1.50;;
57337;SDS011;43173;50.980;18.204;2023-02-01T06:16:22;15.60;;;2.50;;
57337;SDS011;43173;50.980;18.204;2023-02-01T06:18:48;5.40;;;1.50;;
57337;SDS011;43173;50.980;18.204;2023-02-01T06:21:14;10.10;;;2.40;;
57337;SDS011;43173;50.980;18.204;2023-02-01T06:23:49;14.90;;;2.80;;
57337;SDS011;43173;50.980;18.204;2023-02-01T06:26:16;8.00;;;2.00;;
57337;SDS011;43173;50.980;18.204;2023-02-01T06:28:43;11.60;;;2.30;;
57337;SDS011;43173;50.980;18.204;2023-02-01T06:31:09;8.40;;;2.30;;
57337;SDS011;43173;50.980;18.204;2023-02-01T06:33:35;11.40;;;2.80;;
57337;SDS011;43173;50.980;18.204;2023-02-01T06:36:03;8.90;;;2.40;;
57337;SDS011;43173;50.980;18.204;2023-02-01T06:38:30;6.90;;;2.30;;
57337;SDS011;43173;50.980;18.204;2023-02-01T06:40:57;8.80;;;1.80;;
57337;SDS011;43173;50.980;18.204;2023-02-01T06:43:23;6.10;;;2.10;;
57337;SDS011;43173;50.980;18.204;2023-02-01T06:45:50;11.30;;;2.50;;
57337;SDS011;43173;50.980;18.204;2023-02-01T06:48:16;5.70;;;1.80;;
57337;SDS011;43173;50.980;18.204;2023-02-01T06:50:42;7.10;;;1.80;;
57337;SDS011;43173;50.980;18.204;2023-02-01T06:53:08;8.60;;;1.80;;
57337;SDS011;43173;50.980;18.204;2023-02-01T06:55:34;6.70;;;2.00;;
57337;SDS011;43173;50.980;18.204;2023-02-01T06:58:00;10.80;;;1.90;;
57337;SDS011;43173;50.980;18.204;2023-02-01T07:00:27;11.10;;;2.50;;
57337;SDS011;43173;50.980;18.204;2023-02-01T07:02:54;8.80;;;2.60;;
57337;SDS011;43173;50.980;18.204;2023-02-01T07:05:20;8.00;;;2.40;;
57337;SDS011;43173;50.980;18.204;2023-02-01T07:07:46;7.10;;;1.40;;
57337;SDS011;43173;50.980;18.204;2023-02-01T07:10:12;9.60;;;2.40;;
57337;SDS011;43173;50.980;18.204;2023-02-01T07:12:38;18.50;;;3.20;;
57337;SDS011;43173;50.980;18.204;2023-02-01T07:15:05;11.70;;;2.90;;
57337;SDS011;43173;50.980;18.204;2023-02-01T07:17:31;8.60;;;2.10;;
57337;SDS011;43173;50.980;18.204;2023-02-01T07:19:57;8.90;;;2.30;;
57337;SDS011;43173;50.980;18.204;2023-02-01T07:22:25;11.40;;;3.10;;
57337;SDS011;43173;50.980;18.204;2023-02-01T07:24:51;10.50;;;2.50;;
57337;SDS011;43173;50.980;18.204;2023-02-01T07:27:17;8.00;;;2.50;;
57337;SDS011;43173;50.980;18.204;2023-02-01T07:29:42;16.10;;;4.90;;
57337;SDS011;43173;50.980;18.204;2023-02-01T07:32:08;15.90;;;4.00;;
57337;SDS011;43173;50.980;18.204;2023-02-01T07:34:34;11.90;;;3.10;;
57337;SDS011;43173;50.980;18.204;2023-02-01T07:37:00;16.80;;;4.10;;
57337;SDS011;43173;50.980;18.204;2023-02-01T07:39:26;12.00;;;3.20;;
57337;SDS011;43173;50.980;18.204;2023-02-01T07:41:53;8.40;;;2.60;;
57337;SDS011;43173;50.980;18.204;2023-02-01T07:44:19;16.20;;;5.20;;
57337;SDS011;43173;50.980;18.204;2023-02-01T07:46:48;12.40;;;3.60;;
57337;SDS011;43173;50.980;18.204;2023-02-01T07:49:14;12.30;;;3.50;;
57337;SDS011;43173;50.980;18.204;2023-02-01T07:51:40;14.40;;;4.40;;
57337;SDS011;43173;50.980;18.204;2023-02-01T07:54:05;14.00;;;3.70;;
57337;SDS011;43173;50.980;18.204;2023-02-01T07:56:31;15.20;;;4.00;;
57337;SDS011;43173;50.980;18.204;2023-02-01T07:58:57;15.00;;;3.60;;
57337;SDS011;43173;50.980;18.204;2023-02-01T08:01:25;9.50;;;2.80;;
57337;SDS011;43173;50.980;18.204;2023-02-01T08:03:59;10.00;;;3.40;;
57337;SDS011;43173;50.980;18.204;2023-02-01T08:06:27;10.40;;;3.10;;
57337;SDS011;43173;50.980;18.204;2023-02-01T08:08:56;11.40;;;2.60;;
57337;SDS011;43173;50.980;18.204;2023-02-01T08:11:23;10.20;;;3.00;;
57337;SDS011;43173;50.980;18.204;2023-02-01T08:13:49;11.00;;;3.30;;
57337;SDS011;43173;50.980;18.204;2023-02-01T08:16:16;15.20;;;3.00;;
57337;SDS011;43173;50.980;18.204;2023-02-01T08:18:43;18.10;;;3.50;;
57337;SDS011;43173;50.980;18.204;2023-02-01T08:21:17;8.70;;;2.20;;
57337;SDS011;43173;50.980;18.204;2023-02-01T08:23:44;8.30;;;2.40;;
57337;SDS011;43173;50.980;18.204;2023-02-01T08:28:38;15.40;;;2.40;;
57337;SDS011;43173;50.980;18.204;2023-02-01T08:31:09;9.10;;;2.10;;
57337;SDS011;43173;50.980;18.204;2023-02-01T08:33:36;10.80;;;1.70;;
57337;SDS011;43173;50.980;18.204;2023-02-01T08:36:06;11.10;;;2.90;;
57337;SDS011;43173;50.980;18.204;2023-02-01T08:38:32;7.20;;;2.10;;
57337;SDS011;43173;50.980;18.204;2023-02-01T08:41:04;6.90;;;2.10;;
57337;SDS011;43173;50.980;18.204;2023-02-01T08:43:33;8.70;;;2.10;;
57337;SDS011;43173;50.980;18.204;2023-02-01T08:45:59;9.90;;;2.50;;
57337;SDS011;43173;50.980;18.204;2023-02-01T08:48:25;7.80;;;1.90;;
57337;SDS011;43173;50.980;18.204;2023-02-01T08:50:50;11.50;;;2.50;;
57337;SDS011;43173;50.980;18.204;2023-02-01T08:53:16;10.50;;;2.50;;
57337;SDS011;43173;50.980;18.204;2023-02-01T08:55:42;6.60;;;2.50;;
57337;SDS011;43173;50.980;18.204;2023-02-01T08:58:07;11.00;;;2.10;;
57337;SDS011;43173;50.980;18.204;2023-02-01T09:00:33;13.00;;;2.90;;
57337;SDS011;43173;50.980;18.204;2023-02-01T09:02:58;8.60;;;2.80;;
57337;SDS011;43173;50.980;18.204;2023-02-01T09:05:24;7.40;;;2.30;;
57337;SDS011;43173;50.980;18.204;2023-02-01T09:07:52;13.40;;;4.30;;
57337;SDS011;43173;50.980;18.204;2023-02-01T09:10:18;10.60;;;3.60;;
57337;SDS011;43173;50.980;18.204;2023-02-01T09:12:44;7.90;;;2.40;;
57337;SDS011;43173;50.980;18.204;2023-02-01T09:15:10;10.30;;;2.60;;
57337;SDS011;43173;50.980;18.204;2023-02-01T09:17:36;10.50;;;2.20;;
57337;SDS011;43173;50.980;18.204;2023-02-01T09:20:02;8.50;;;4.10;;
57337;SDS011;43173;50.980;18.204;2023-02-01T09:22:28;8.10;;;1.80;;
57337;SDS011;43173;50.980;18.204;2023-02-01T09:24:54;11.40;;;2.50;;
57337;SDS011;43173;50.980;18.204;2023-02-01T09:27:20;8.90;;;2.30;;
57337;SDS011;43173;50.980;18.204;2023-02-01T09:29:46;11.90;;;3.50;;
57337;SDS011;43173;50.980;18.204;2023-02-01T09:32:18;7.70;;;1.90;;
57337;SDS011;43173;50.980;18.204;2023-02-01T09:34:45;5.80;;;1.60;;
57337;SDS011;43173;50.980;18.204;2023-02-01T09:37:10;7.90;;;2.50;;
57337;SDS011;43173;50.980;18.204;2023-02-01T09:39:36;8.10;;;2.30;;
57337;SDS011;43173;50.980;18.204;2023-02-01T09:47:09;6.70;;;1.90;;
57337;SDS011;43173;50.980;18.204;2023-02-01T09:49:39;10.10;;;2.10;;
57337;SDS011;43173;50.980;18.204;2023-02-01T09:52:22;5.50;;;2.50;;
57337;SDS011;43173;50.980;18.204;2023-02-01T09:54:54;12.50;;;3.00;;
57337;SDS011;43173;50.980;18.204;2023-02-01T09:57:34;15.90;;;2.40;;
57337;SDS011;43173;50.980;18.204;2023-02-01T10:00:22;7.60;;;1.90;;
57337;SDS011;43173;50.980;18.204;2023-02-01T10:02:51;10.40;;;2.70;;
57337;SDS011;43173;50.980;18.204;2023-02-01T10:10:46;6.20;;;2.50;;
57337;SDS011;43173;50.980;18.204;2023-02-01T10:24:28;12.10;;;2.60;;
57337;SDS011;43173;50.980;18.204;2023-02-01T10:27:02;13.10;;;3.10;;
57337;SDS011;43173;50.980;18.204;2023-02-01T10:29:36;7.40;;;2.30;;
57337;SDS011;43173;50.980;18.204;2023-02-01T10:32:09;13.80;;;3.40;;
57337;SDS011;43173;50.980;18.204;2023-02-01T10:34:38;7.00;;;2.40;;
57337;SDS011;43173;50.980;18.204;2023-02-01T10:39:37;7.80;;;3.30;;
57337;SDS011;43173;50.980;18.204;2023-02-01T10:42:02;6.20;;;1.80;;
57337;SDS011;43173;50.980;18.204;2023-02-01T10:44:29;8.20;;;2.60;;
57337;SDS011;43173;50.980;18.204;2023-02-01T10:46:55;14.10;;;3.90;;
57337;SDS011;43173;50.980;18.204;2023-02-01T10:49:26;8.30;;;2.60;;
57337;SDS011;43173;50.980;18.204;2023-02-01T10:52:00;12.80;;;3.00;;
57337;SDS011;43173;50.980;18.204;2023-02-01T10:54:43;6.70;;;2.50;;
57337;SDS011;43173;50.980;18.204;2023-02-01T10:57:10;6.40;;;2.80;;
57337;SDS011;43173;50.980;18.204;2023-02-01T10:59:37;6.20;;;2.90;;
57337;SDS011;43173;50.980;18.204;2023-02-01T11:05:01;4.70;;;2.00;;
57337;SDS011;43173;50.980;18.204;2023-02-01T11:07:38;6.20;;;2.10;;
57337;SDS011;43173;50.980;18.204;2023-02-01T11:10:05;4.80;;;1.80;;
57337;SDS011;43173;50.980;18.204;2023-02-01T11:12:32;7.80;;;2.80;;
57337;SDS011;43173;50.980;18.204;2023-02-01T11:17:50;4.20;;;2.00;;
57337;SDS011;43173;50.980;18.204;2023-02-01T11:20:21;7.60;;;2.50;;
57337;SDS011;43173;50.980;18.204;2023-02-01T11:23:00;4.20;;;1.60;;
57337;SDS011;43173;50.980;18.204;2023-02-01T11:25:26;9.70;;;3.20;;
57337;SDS011;43173;50.980;18.204;2023-02-01T11:27:53;6.60;;;2.50;;
57337;SDS011;43173;50.980;18.204;2023-02-01T11:32:54;4.40;;;1.70;;
57337;SDS011;43173;50.980;18.204;2023-02-01T11:35:20;5.70;;;2.20;;
57337;SDS011;43173;50.980;18.204;2023-02-01T11:37:56;6.50;;;2.80;;
57337;SDS011;43173;50.980;18.204;2023-02-01T11:40:28;5.60;;;2.70;;
57337;SDS011;43173;50.980;18.204;2023-02-01T11:43:11;5.20;;;2.40;;
57337;SDS011;43173;50.980;18.204;2023-02-01T11:45:41;6.30;;;2.30;;
57337;SDS011;43173;50.980;18.204;2023-02-01T11:48:14;5.50;;;3.00;;
57337;SDS011;43173;50.980;18.204;2023-02-01T11:56:58;10.50;;;3.20;;
57337;SDS011;43173;50.980;18.204;2023-02-01T12:02:19;9.00;;;3.00;;
57337;SDS011;43173;50.980;18.204;2023-02-01T12:05:31;13.90;;;3.20;;
57337;SDS011;43173;50.980;18.204;2023-02-01T12:29:53;6.40;;;2.40;;
57337;SDS011;43173;50.980;18.204;2023-02-01T12:32:41;8.30;;;2.50;;
57337;SDS011;43173;50.980;18.204;2023-02-01T12:35:26;5.80;;;2.20;;
57337;SDS011;43173;50.980;18.204;2023-02-01T12:38:04;10.40;;;3.60;;
57337;SDS011;43173;50.980;18.204;2023-02-01T12:46:47;12.20;;;4.70;;
57337;SDS011;43173;50.980;18.204;2023-02-01T12:51:28;8.00;;;2.90;;
57337;SDS011;43173;50.980;18.204;2023-02-01T12:54:00;7.40;;;3.90;;
57337;SDS011;43173;50.980;18.204;2023-02-01T12:56:47;11.90;;;4.80;;
57337;SDS011;43173;50.980;18.204;2023-02-01T12:59:42;16.40;;;6.20;;
57337;SDS011;43173;50.980;18.204;2023-02-01T13:02:25;13.10;;;4.00;;
57337;SDS011;43173;50.980;18.204;2023-02-01T13:05:13;5.00;;;2.70;;
57337;SDS011;43173;50.980;18.204;2023-02-01T13:13:19;15.60;;;6.10;;
57337;SDS011;43173;50.980;18.204;2023-02-01T13:18:50;8.60;;;4.20;;
57337;SDS011;43173;50.980;18.204;2023-02-01T13:21:24;14.20;;;6.60;;
57337;SDS011;43173;50.980;18.204;2023-02-01T13:23:52;6.10;;;2.90;;
57337;SDS011;43173;50.980;18.204;2023-02-01T13:26:18;7.80;;;3.70;;
57337;SDS011;43173;50.980;18.204;2023-02-01T13:28:47;5.20;;;3.40;;
57337;SDS011;43173;50.980;18.204;2023-02-01T13:42:26;9.30;;;4.40;;
57337;SDS011;43173;50.980;18.204;2023-02-01T13:44:58;10.20;;;3.90;;
57337;SDS011;43173;50.980;18.204;2023-02-01T13:47:28;9.30;;;4.30;;
57337;SDS011;43173;50.980;18.204;2023-02-01T13:49:59;8.90;;;4.10;;
57337;SDS011;43173;50.980;18.204;2023-02-01T13:52:51;6.90;;;3.60;;
57337;SDS011;43173;50.980;18.204;2023-02-01T13:55:29;5.30;;;3.40;;
57337;SDS011;43173;50.980;18.204;2023-02-01T13:58:06;7.90;;;4.70;;
57337;SDS011;43173;50.980;18.204;2023-02-01T14:00:36;6.10;;;3.30;;
57337;SDS011;43173;50.980;18.204;2023-02-01T14:10:47;7.90;;;4.90;;
57337;SDS011;43173;50.980;18.204;2023-02-01T14:16:14;17.50;;;8.00;;
57337;SDS011;43173;50.980;18.204;2023-02-01T14:34:15;4.50;;;2.10;;
57337;SDS011;43173;50.980;18.204;2023-02-01T14:36:47;6.20;;;2.70;;
57337;SDS011;43173;50.980;18.204;2023-02-01T14:47:42;5.00;;;2.30;;
57337;SDS011;43173;50.980;18.204;2023-02-01T14:50:15;6.30;;;1.50;;
57337;SDS011;43173;50.980;18.204;2023-02-01T15:01:22;4.70;;;1.60;;
57337;SDS011;43173;50.980;18.204;2023-02-01T15:06:44;5.40;;;2.00;;
57337;SDS011;43173;50.980;18.204;2023-02-01T15:12:09;5.10;;;1.60;;
57337;SDS011;43173;50.980;18.204;2023-02-01T15:15:03;3.70;;;1.80;;
57337;SDS011;43173;50.980;18.204;2023-02-01T15:17:49;4.50;;;1.30;;
57337;SDS011;43173;50.980;18.204;2023-02-01T15:20:17;4.40;;;2.50;;
57337;SDS011;43173;50.980;18.204;2023-02-01T15:22:51;5.30;;;2.40;;
57337;SDS011;43173;50.980;18.204;2023-02-01T15:25:26;5.30;;;2.80;;
57337;SDS011;43173;50.980;18.204;2023-02-01T15:27:54;5.50;;;2.80;;
57337;SDS011;43173;50.980;18.204;2023-02-01T15:30:24;4.80;;;3.00;;
57337;SDS011;43173;50.980;18.204;2023-02-01T15:33:03;3.60;;;1.80;;
57337;SDS011;43173;50.980;18.204;2023-02-01T15:35:39;4.40;;;2.00;;
57337;SDS011;43173;50.980;18.204;2023-02-01T15:41:05;6.00;;;2.20;;
57337;SDS011;43173;50.980;18.204;2023-02-01T15:43:35;6.70;;;2.40;;
57337;SDS011;43173;50.980;18.204;2023-02-01T15:46:18;4.60;;;1.80;;
57337;SDS011;43173;50.980;18.204;2023-02-01T15:48:51;6.20;;;2.70;;
57337;SDS011;43173;50.980;18.204;2023-02-01T15:51:19;4.60;;;2.40;;
57337;SDS011;43173;50.980;18.204;2023-02-01T15:53:51;4.40;;;1.70;;
57337;SDS011;43173;50.980;18.204;2023-02-01T15:56:23;6.30;;;2.50;;
57337;SDS011;43173;50.980;18.204;2023-02-01T15:58:52;3.00;;;1.70;;
57337;SDS011;43173;50.980;18.204;2023-02-01T16:01:20;6.00;;;2.80;;
57337;SDS011;43173;50.980;18.204;2023-02-01T16:03:46;5.10;;;2.50;;
57337;SDS011;43173;50.980;18.204;2023-02-01T16:08:49;5.80;;;2.30;;
57337;SDS011;43173;50.980;18.204;2023-02-01T16:14:05;11.20;;;3.40;;
57337;SDS011;43173;50.980;18.204;2023-02-01T16:16:30;4.30;;;2.40;;
57337;SDS011;43173;50.980;18.204;2023-02-01T16:18:56;6.90;;;3.30;;
57337;SDS011;43173;50.980;18.204;2023-02-01T16:21:22;5.60;;;2.40;;
57337;SDS011;43173;50.980;18.204;2023-02-01T16:23:51;3.50;;;2.10;;
57337;SDS011;43173;50.980;18.204;2023-02-01T16:26:17;9.10;;;2.90;;
57337;SDS011;43173;50.980;18.204;2023-02-01T16:28:44;7.80;;;3.00;;
57337;SDS011;43173;50.980;18.204;2023-02-01T16:31:13;11.50;;;4.10;;
57337;SDS011;43173;50.980;18.204;2023-02-01T16:33:50;10.30;;;4.70;;
57337;SDS011;43173;50.980;18.204;2023-02-01T16:36:18;19.30;;;7.70;;
57337;SDS011;43173;50.980;18.204;2023-02-01T16:38:45;15.00;;;6.60;;
57337;SDS011;43173;50.980;18.204;2023-02-01T16:41:13;13.70;;;7.20;;
57337;SDS011;43173;50.980;18.204;2023-02-01T16:43:40;32.60;;;12.20;;
57337;SDS011;43173;50.980;18.204;2023-02-01T16:46:10;31.90;;;13.30;;
57337;SDS011;43173;50.980;18.204;2023-02-01T16:48:40;19.50;;;7.60;;
57337;SDS011;43173;50.980;18.204;2023-02-01T16:51:10;19.60;;;6.90;;
57337;SDS011;43173;50.980;18.204;2023-02-01T16:53:38;22.00;;;7.30;;
57337;SDS011;43173;50.980;18.204;2023-02-01T16:56:24;14.60;;;6.40;;
57337;SDS011;43173;50.980;18.204;2023-02-01T16:58:55;15.70;;;6.80;;
57337;SDS011;43173;50.980;18.204;2023-02-01T17:01:21;25.90;;;10.40;;
57337;SDS011;43173;50.980;18.204;2023-02-01T17:03:47;31.10;;;10.10;;
57337;SDS011;43173;50.980;18.204;2023-02-01T17:06:16;20.80;;;7.60;;
57337;SDS011;43173;50.980;18.204;2023-02-01T17:08:44;16.80;;;5.80;;
57337;SDS011;43173;50.980;18.204;2023-02-01T17:11:12;25.10;;;7.70;;
57337;SDS011;43173;50.980;18.204;2023-02-01T17:13:39;11.10;;;4.60;;
57337;SDS011;43173;50.980;18.204;2023-02-01T17:19:01;12.70;;;6.10;;
57337;SDS011;43173;50.980;18.204;2023-02-01T17:21:29;13.80;;;5.50;;
57337;SDS011;43173;50.980;18.204;2023-02-01T17:23:57;3.40;;;2.50;;
57337;SDS011;43173;50.980;18.204;2023-02-01T17:26:24;12.80;;;5.50;;
57337;SDS011;43173;50.980;18.204;2023-02-01T17:28:50;11.20;;;4.30;;
57337;SDS011;43173;50.980;18.204;2023-02-01T17:31:15;15.70;;;5.40;;
57337;SDS011;43173;50.980;18.204;2023-02-01T17:33:42;5.10;;;3.10;;
57337;SDS011;43173;50.980;18.204;2023-02-01T17:36:10;10.40;;;3.40;;
57337;SDS011;43173;50.980;18.204;2023-02-01T17:38:38;12.70;;;5.00;;
57337;SDS011;43173;50.980;18.204;2023-02-01T17:41:05;12.30;;;6.20;;
57337;SDS011;43173;50.980;18.204;2023-02-01T17:43:30;15.20;;;5.40;;
57337;SDS011;43173;50.980;18.204;2023-02-01T17:48:39;12.20;;;3.80;;
57337;SDS011;43173;50.980;18.204;2023-02-01T17:51:08;11.80;;;3.70;;
57337;SDS011;43173;50.980;18.204;2023-02-01T17:53:42;7.30;;;3.10;;
57337;SDS011;43173;50.980;18.204;2023-02-01T17:56:11;7.90;;;3.70;;
57337;SDS011;43173;50.980;18.204;2023-02-01T17:58:38;9.20;;;4.70;;
57337;SDS011;43173;50.980;18.204;2023-02-01T18:01:04;14.70;;;5.70;;